Time;durP1;ratioP1;P1;durP2;ratioP2;P2;SDS_P1;SDS_P2;PMS_P1;PMS_P2;Temp;Humidity;BMP_temperature;BMP_pressure;BME280_temperature;BME280_humidity;BME280_pressure;Samples;Min_cycle;Max_cycle;Signal;HPM_P1;HPM_P2
2023/04/07 00:01:22;;;;;;;1.30;1.20;;;14.40;44.50;;;;;;5086190;28;45352;-71
2023/04/07 00:03:48;;;;;;;1.15;1.00;;;14.40;44.50;;;;;;5086381;28;45151;-71
2023/04/07 00:06:15;;;;;;;1.42;1.15;;;14.40;44.60;;;;;;5086488;28;45412;-72
2023/04/07 00:08:42;;;;;;;1.08;1.08;;;14.40;44.50;;;;;;5086084;28;46763;-71
2023/04/07 00:11:09;;;;;;;1.55;1.13;;;14.40;44.60;;;;;;5086196;28;45332;-72
2023/04/07 00:13:37;;;;;;;1.80;1.05;;;14.40;45.10;;;;;;5086333;28;45300;-71
2023/04/07 00:16:04;;;;;;;1.05;1.02;;;14.40;44.50;;;;;;5086422;28;45296;-72
2023/04/07 00:18:31;;;;;;;1.20;1.10;;;14.40;45.10;;;;;;5085969;28;47588;-72
2023/04/07 00:20:58;;;;;;;1.15;1.05;;;14.40;44.50;;;;;;5086006;28;45304;-72
2023/04/07 00:23:25;;;;;;;1.20;1.10;;;14.40;44.60;;;;;;5086155;28;45383;-72
2023/04/07 00:25:52;;;;;;;2.05;1.17;;;14.40;44.70;;;;;;5086172;27;45249;-71
2023/04/07 00:28:19;;;;;;;1.60;0.98;;;14.30;44.50;;;;;;5085730;28;46478;-72
2023/04/07 00:30:48;;;;;;;1.20;0.90;;;14.40;44.60;;;;;;5085831;28;45428;-72
2023/04/07 00:33:14;;;;;;;1.02;1.00;;;14.30;44.60;;;;;;5086026;28;45319;-72
2023/04/07 00:35:41;;;;;;;1.00;1.00;;;14.30;44.60;;;;;;5086026;28;45296;-73
2023/04/07 00:38:08;;;;;;;0.95;0.90;;;14.30;44.60;;;;;;5085761;28;46417;-72
2023/04/07 00:40:35;;;;;;;0.90;0.90;;;14.30;44.60;;;;;;5085814;28;45215;-72
2023/04/07 00:43:02;;;;;;;0.95;0.80;;;14.30;44.60;;;;;;5085767;28;45301;-72
2023/04/07 00:45:28;;;;;;;0.93;0.90;;;14.30;44.60;;;;;;5085768;28;45485;-71
2023/04/07 00:47:57;;;;;;;1.40;1.27;;;14.30;44.60;;;;;;5085426;28;46387;-72
2023/04/07 00:50:24;;;;;;;1.10;1.00;;;14.30;45.30;;;;;;5084720;27;45268;-72
2023/04/07 00:52:51;;;;;;;0.93;0.90;;;14.30;44.70;;;;;;5085792;28;45265;-72
2023/04/07 00:55:18;;;;;;;1.20;1.10;;;14.20;44.70;;;;;;5085858;28;45328;-72
2023/04/07 00:57:45;;;;;;;1.10;1.00;;;14.20;44.60;;;;;;5085356;28;45448;-72
2023/04/07 01:00:13;;;;;;;1.10;1.00;;;14.20;44.60;;;;;;5085428;28;45334;-72
2023/04/07 01:02:42;;;;;;;1.83;1.00;;;14.20;44.80;;;;;;5085548;28;45277;-72
2023/04/07 01:05:15;;;;;;;0.90;0.90;;;14.20;44.60;;;;;;5085645;28;45319;-72
2023/04/07 01:07:48;;;;;;;1.05;0.98;;;14.20;44.80;;;;;;5085364;28;46605;-72
2023/04/07 01:10:18;;;;;;;1.02;1.02;;;14.20;44.80;;;;;;5085455;28;45333;-72
2023/04/07 01:12:47;;;;;;;0.82;0.82;;;14.20;44.70;;;;;;5085462;28;45375;-72
2023/04/07 01:15:14;;;;;;;0.98;0.98;;;14.20;44.80;;;;;;5085641;28;45250;-72
2023/04/07 01:17:43;;;;;;;0.90;0.90;;;14.20;44.90;;;;;;5085083;28;46413;-72
2023/04/07 01:20:14;;;;;;;0.80;0.80;;;14.10;44.80;;;;;;5085182;28;45344;-72
2023/04/07 01:22:42;;;;;;;1.10;1.00;;;14.20;44.80;;;;;;5085482;28;45329;-72
2023/04/07 01:25:22;;;;;;;0.93;0.93;;;14.20;44.90;;;;;;5085613;28;45226;-72
2023/04/07 01:27:54;;;;;;;0.93;0.82;;;14.20;44.80;;;;;;5085991;28;45303;-72
2023/04/07 01:30:22;;;;;;;1.48;1.10;;;14.10;44.80;;;;;;5085903;28;45383;-71
2023/04/07 01:32:50;;;;;;;1.60;1.10;;;14.10;44.80;;;;;;5086097;28;45255;-72
2023/04/07 01:35:17;;;;;;;0.98;0.80;;;14.10;44.80;;;;;;5086060;28;45357;-71
2023/04/07 01:37:45;;;;;;;0.88;0.88;;;14.10;44.90;;;;;;5083039;28;45377;-72
2023/04/07 01:40:12;;;;;;;1.10;1.00;;;14.10;44.90;;;;;;5085745;28;45364;-72
2023/04/07 01:42:39;;;;;;;1.05;0.95;;;14.10;44.90;;;;;;5085703;28;45273;-72
2023/04/07 01:45:07;;;;;;;1.10;1.00;;;14.10;44.90;;;;;;5085928;28;45420;-71
2023/04/07 01:47:36;;;;;;;0.95;0.95;;;14.10;45.00;;;;;;5085148;28;45490;-71
2023/04/07 01:50:04;;;;;;;0.90;0.90;;;14.10;45.10;;;;;;5085198;28;45373;-71
2023/04/07 01:52:31;;;;;;;0.80;0.80;;;14.10;45.50;;;;;;5085866;28;45273;-71
2023/04/07 01:54:58;;;;;;;1.10;1.00;;;14.10;44.90;;;;;;5085930;28;45455;-72
2023/04/07 01:57:25;;;;;;;0.80;0.80;;;14.10;44.90;;;;;;5085453;28;45342;-72
2023/04/07 01:59:51;;;;;;;0.80;0.80;;;14.00;45.50;;;;;;5085512;28;45470;-72
2023/04/07 02:02:18;;;;;;;0.98;0.90;;;14.00;44.90;;;;;;5089272;28;45250;-72
2023/04/07 02:04:55;;;;;;;1.38;1.27;;;14.10;45.00;;;;;;5089244;28;45413;-72
2023/04/07 02:07:24;;;;;;;1.20;1.00;;;14.00;45.00;;;;;;5088799;28;47557;-72
2023/04/07 02:09:51;;;;;;;1.10;0.80;;;14.00;45.00;;;;;;5088753;28;45495;-72
2023/04/07 02:12:18;;;;;;;1.10;1.08;;;14.00;45.00;;;;;;5088998;28;45250;-72
2023/04/07 02:14:45;;;;;;;1.23;1.10;;;14.00;45.10;;;;;;5088930;28;45320;-72
2023/04/07 02:17:12;;;;;;;1.15;1.05;;;14.00;45.00;;;;;;5088711;28;45535;-72
2023/04/07 02:19:38;;;;;;;0.88;0.88;;;14.00;45.10;;;;;;5088671;28;45355;-72
2023/04/07 02:22:07;;;;;;;1.63;0.90;;;14.00;45.10;;;;;;5088709;28;45389;-72
2023/04/07 02:24:34;;;;;;;0.82;0.80;;;14.00;45.00;;;;;;5089016;28;45241;-72
2023/04/07 02:27:01;;;;;;;1.17;1.00;;;14.00;45.10;;;;;;5088073;28;45366;-71
2023/04/07 02:29:28;;;;;;;0.75;0.75;;;14.00;45.10;;;;;;5088546;28;45226;-72
2023/04/07 02:31:56;;;;;;;1.30;1.20;;;14.00;45.10;;;;;;5088474;28;45332;-72
2023/04/07 02:34:23;;;;;;;0.90;0.90;;;14.00;45.10;;;;;;5088649;28;45279;-71
2023/04/07 02:36:50;;;;;;;1.17;1.08;;;13.90;45.10;;;;;;5087542;28;46389;-72
2023/04/07 02:39:18;;;;;;;1.13;1.02;;;13.90;45.10;;;;;;5088475;28;45305;-72
2023/04/07 02:41:45;;;;;;;1.23;1.00;;;13.90;45.20;;;;;;5088367;28;45392;-72
2023/04/07 02:44:11;;;;;;;1.15;0.90;;;13.90;45.20;;;;;;5088328;28;45308;-71
2023/04/07 02:46:38;;;;;;;0.95;0.90;;;13.90;45.10;;;;;;5087983;28;46391;-72
2023/04/07 02:49:05;;;;;;;1.13;1.02;;;13.90;45.10;;;;;;5088304;28;45376;-72
2023/04/07 02:51:32;;;;;;;0.90;0.90;;;13.90;45.10;;;;;;5088256;28;45376;-72
2023/04/07 02:53:59;;;;;;;0.80;0.80;;;13.90;45.10;;;;;;5088303;28;45434;-72
2023/04/07 02:56:27;;;;;;;1.00;1.00;;;13.90;45.20;;;;;;5087962;28;45541;-71
2023/04/07 02:58:54;;;;;;;0.82;0.82;;;13.80;45.20;;;;;;5088126;28;45304;-72
2023/04/07 03:01:20;;;;;;;1.00;1.00;;;13.90;45.20;;;;;;5088145;28;45395;-72
2023/04/07 03:03:47;;;;;;;0.80;0.80;;;13.90;45.20;;;;;;5088444;28;45316;-72
2023/04/07 03:06:14;;;;;;;1.13;0.98;;;13.80;45.20;;;;;;5087708;28;46227;-72
2023/04/07 03:08:42;;;;;;;0.90;0.90;;;13.80;45.20;;;;;;5087939;28;45356;-72
2023/04/07 03:11:09;;;;;;;0.80;0.80;;;13.80;45.30;;;;;;5088036;28;45319;-72
2023/04/07 03:13:37;;;;;;;1.60;0.88;;;13.80;45.30;;;;;;5087344;28;45295;-72
2023/04/07 03:16:04;;;;;;;0.90;0.90;;;13.80;45.30;;;;;;5087483;28;46350;-72
2023/04/07 03:18:31;;;;;;;1.33;1.17;;;13.80;45.50;;;;;;5086986;28;45358;-71
2023/04/07 03:20:58;;;;;;;1.70;0.93;;;13.80;45.30;;;;;;5087641;28;45280;-72
2023/04/07 03:23:27;;;;;;;0.95;0.88;;;13.80;45.40;;;;;;5085372;28;45348;-71
2023/04/07 03:25:54;;;;;;;0.98;0.98;;;13.80;45.50;;;;;;5087153;28;46881;-71
2023/04/07 03:28:21;;;;;;;1.10;0.95;;;13.80;45.30;;;;;;5087599;28;45364;-72
2023/04/07 03:30:49;;;;;;;1.08;0.90;;;13.80;45.40;;;;;;5087717;28;45321;-71
2023/04/07 03:33:16;;;;;;;0.85;0.85;;;13.80;45.40;;;;;;5087942;28;45309;-71
2023/04/07 03:35:43;;;;;;;1.02;0.90;;;13.70;45.30;;;;;;5087312;28;45486;-72
2023/04/07 03:38:10;;;;;;;0.80;0.80;;;13.70;45.40;;;;;;5087313;28;45388;-71
2023/04/07 03:40:37;;;;;;;1.20;0.93;;;13.70;45.30;;;;;;5087472;28;45378;-72
2023/04/07 03:43:04;;;;;;;0.80;0.80;;;13.80;45.40;;;;;;5087623;28;45388;-72
2023/04/07 03:45:33;;;;;;;1.67;0.90;;;13.70;45.40;;;;;;5087031;28;45352;-71
2023/04/07 03:48:01;;;;;;;0.90;0.90;;;13.70;45.40;;;;;;5087165;28;45379;-71
2023/04/07 03:50:28;;;;;;;1.00;1.00;;;13.70;45.40;;;;;;5087484;28;45292;-72
2023/04/07 03:52:55;;;;;;;0.70;0.70;;;13.70;45.50;;;;;;5087416;28;45389;-72
2023/04/07 03:55:22;;;;;;;0.85;0.82;;;13.70;45.40;;;;;;5087263;28;45319;-72
2023/04/07 03:57:49;;;;;;;1.35;1.20;;;13.70;45.40;;;;;;5087111;28;45291;-71
2023/04/07 04:00:16;;;;;;;0.90;0.90;;;13.70;45.50;;;;;;5087313;28;45368;-72
2023/04/07 04:02:43;;;;;;;1.25;1.17;;;13.70;45.50;;;;;;5086655;28;45379;-71
2023/04/07 04:05:11;;;;;;;1.33;0.80;;;13.70;45.40;;;;;;5086785;28;46459;-72
2023/04/07 04:07:38;;;;;;;1.67;1.02;;;13.70;45.50;;;;;;5086946;28;45403;-72
2023/04/07 04:10:05;;;;;;;1.05;0.98;;;13.70;45.50;;;;;;5086986;28;45262;-71
2023/04/07 04:12:32;;;;;;;0.90;0.90;;;13.70;45.40;;;;;;5087185;28;45444;-71
2023/04/07 04:14:59;;;;;;;0.95;0.90;;;13.70;45.40;;;;;;5086523;28;45350;-71
2023/04/07 04:17:26;;;;;;;0.80;0.80;;;13.70;45.50;;;;;;5086679;28;45282;-71
2023/04/07 04:19:53;;;;;;;1.05;1.00;;;13.70;45.60;;;;;;5087015;28;45183;-71
2023/04/07 04:22:21;;;;;;;0.73;0.73;;;13.70;45.60;;;;;;5087014;28;45438;-71
2023/04/07 04:24:48;;;;;;;0.93;0.93;;;13.70;45.50;;;;;;5085459;27;46677;-71
2023/04/07 04:27:15;;;;;;;0.90;0.90;;;13.70;45.40;;;;;;5086303;28;45322;-71
2023/04/07 04:29:42;;;;;;;1.23;1.05;;;13.70;46.10;;;;;;5087145;28;45223;-71
2023/04/07 04:32:08;;;;;;;0.90;0.90;;;13.70;45.60;;;;;;5087139;28;45244;-71
2023/04/07 04:34:35;;;;;;;0.80;0.80;;;13.70;45.50;;;;;;5086634;28;45494;-71
2023/04/07 04:37:02;;;;;;;1.02;0.93;;;13.70;45.50;;;;;;5086829;28;45446;-71
2023/04/07 04:39:30;;;;;;;0.90;0.90;;;13.70;45.60;;;;;;5086895;28;45380;-72
2023/04/07 04:41:57;;;;;;;0.95;0.82;;;13.70;45.60;;;;;;5086714;28;45408;-71
2023/04/07 04:44:24;;;;;;;0.88;0.80;;;13.60;45.50;;;;;;5086172;28;46416;-71
2023/04/07 04:46:51;;;;;;;0.80;0.80;;;13.60;45.60;;;;;;5085396;28;45232;-71
2023/04/07 04:49:18;;;;;;;0.90;0.90;;;13.60;45.70;;;;;;5086353;28;45376;-72
2023/04/07 04:51:45;;;;;;;0.90;0.90;;;13.60;45.50;;;;;;5086491;28;45380;-71
2023/04/07 04:54:12;;;;;;;0.73;0.73;;;13.60;45.60;;;;;;5086232;28;46897;-71
2023/04/07 04:56:41;;;;;;;0.93;0.93;;;13.60;45.60;;;;;;5086337;28;45260;-71
2023/04/07 04:59:08;;;;;;;0.65;0.65;;;13.60;45.70;;;;;;5086581;28;45411;-71
2023/04/07 05:01:35;;;;;;;0.93;0.90;;;13.60;45.60;;;;;;5086337;28;45318;-71
2023/04/07 05:04:02;;;;;;;0.90;0.90;;;13.60;45.60;;;;;;5086141;28;45524;-72
2023/04/07 05:06:28;;;;;;;0.70;0.70;;;13.60;45.60;;;;;;5086220;28;45246;-72
2023/04/07 05:08:55;;;;;;;1.83;0.70;;;13.60;45.70;;;;;;5086170;28;45203;-72
2023/04/07 05:11:22;;;;;;;1.00;0.90;;;13.60;45.80;;;;;;5086320;28;45420;-72
2023/04/07 05:13:50;;;;;;;0.77;0.77;;;13.60;45.70;;;;;;5085966;28;45462;-72
2023/04/07 05:16:18;;;;;;;0.90;0.90;;;13.60;45.70;;;;;;5085822;28;45266;-72
2023/04/07 05:18:44;;;;;;;1.08;1.00;;;13.60;45.70;;;;;;5086100;28;45253;-71
2023/04/07 05:21:11;;;;;;;0.95;0.95;;;13.60;45.70;;;;;;5086223;28;45389;-72
2023/04/07 05:23:38;;;;;;;0.88;0.88;;;13.60;45.70;;;;;;5086146;28;46344;-72
2023/04/07 05:26:05;;;;;;;1.02;0.68;;;13.60;45.70;;;;;;5085428;28;45305;-72
2023/04/07 05:28:32;;;;;;;0.80;0.80;;;13.60;46.30;;;;;;5085215;28;45385;-72
2023/04/07 05:31:01;;;;;;;0.80;0.60;;;13.60;45.80;;;;;;5086155;28;45270;-72
2023/04/07 05:33:27;;;;;;;1.70;0.90;;;13.60;45.70;;;;;;5085619;28;46942;-71
2023/04/07 05:35:54;;;;;;;0.80;0.80;;;13.60;45.70;;;;;;5087225;27;45317;-71
2023/04/07 05:38:21;;;;;;;0.90;0.90;;;13.60;45.70;;;;;;5089418;28;45304;-71
2023/04/07 05:40:48;;;;;;;0.90;0.90;;;13.60;45.80;;;;;;5089569;28;45452;-71
2023/04/07 05:43:15;;;;;;;0.80;0.80;;;13.50;45.70;;;;;;5089023;28;45534;-71
2023/04/07 05:45:42;;;;;;;2.10;1.10;;;13.50;45.80;;;;;;5089058;28;45324;-71
2023/04/07 05:48:10;;;;;;;1.38;0.90;;;13.60;45.80;;;;;;5089279;28;45297;-71
2023/04/07 05:50:37;;;;;;;0.80;0.80;;;13.60;45.80;;;;;;5089443;28;45325;-71
2023/04/07 05:53:03;;;;;;;1.27;1.00;;;13.50;45.80;;;;;;5089103;28;46665;-71
2023/04/07 05:55:30;;;;;;;1.35;0.80;;;13.50;45.80;;;;;;5089086;28;45266;-71
2023/04/07 05:57:57;;;;;;;1.20;0.80;;;13.50;45.90;;;;;;5089107;28;45414;-71
2023/04/07 06:00:24;;;;;;;1.08;1.00;;;13.50;45.80;;;;;;5089479;28;45348;-71
2023/04/07 06:02:51;;;;;;;1.08;0.90;;;13.50;45.90;;;;;;5088771;28;45576;-71
2023/04/07 06:05:20;;;;;;;0.80;0.80;;;13.50;46.40;;;;;;5089092;28;45389;-71
2023/04/07 06:07:47;;;;;;;0.90;0.77;;;13.50;45.80;;;;;;5089008;28;45312;-71
2023/04/07 06:10:14;;;;;;;0.80;0.80;;;13.50;45.90;;;;;;5088692;28;45499;-71
2023/04/07 06:12:41;;;;;;;0.90;0.90;;;13.50;45.90;;;;;;5088092;28;46625;-71
2023/04/07 06:15:08;;;;;;;0.80;0.80;;;13.50;45.90;;;;;;5088849;28;45320;-71
2023/04/07 06:17:35;;;;;;;0.95;0.93;;;13.50;45.90;;;;;;5088863;28;45313;-72
2023/04/07 06:20:02;;;;;;;0.85;0.70;;;13.50;46.00;;;;;;5089027;28;45288;-71
2023/04/07 06:22:30;;;;;;;1.10;1.00;;;13.50;45.90;;;;;;5088618;28;45242;-72
2023/04/07 06:24:57;;;;;;;0.80;0.80;;;13.50;46.00;;;;;;5088616;28;45290;-71
2023/04/07 06:27:24;;;;;;;0.98;0.88;;;13.50;46.00;;;;;;5088495;28;45361;-71
2023/04/07 06:29:51;;;;;;;1.00;0.90;;;13.50;45.90;;;;;;5088730;28;45380;-71
2023/04/07 06:32:18;;;;;;;1.00;0.80;;;13.50;45.90;;;;;;5088436;28;45316;-71
2023/04/07 06:34:44;;;;;;;0.90;0.90;;;13.50;46.00;;;;;;5088308;28;45418;-71
2023/04/07 06:37:11;;;;;;;0.95;0.95;;;13.60;46.00;;;;;;5088699;28;45331;-71
2023/04/07 06:39:40;;;;;;;0.80;0.80;;;13.60;45.90;;;;;;5088795;28;45270;-71
2023/04/07 06:42:06;;;;;;;0.90;0.90;;;13.60;46.00;;;;;;5088038;28;45598;-71
2023/04/07 06:44:35;;;;;;;0.93;0.93;;;13.60;45.90;;;;;;5088227;28;45320;-71
2023/04/07 06:47:02;;;;;;;0.80;0.80;;;13.60;45.80;;;;;;5087028;27;45339;-72
2023/04/07 06:49:28;;;;;;;0.93;0.90;;;13.60;45.80;;;;;;5088478;28;45324;-71
2023/04/07 06:51:55;;;;;;;1.38;1.00;;;13.60;45.90;;;;;;5087913;28;45318;-71
2023/04/07 06:54:22;;;;;;;0.80;0.80;;;13.60;45.90;;;;;;5087439;28;45433;-71
2023/04/07 06:56:50;;;;;;;0.88;0.85;;;13.60;45.80;;;;;;5088082;28;45390;-71
2023/04/07 06:59:17;;;;;;;0.60;0.60;;;13.60;45.80;;;;;;5088392;28;45357;-71
2023/04/07 07:01:44;;;;;;;0.90;0.90;;;13.60;45.90;;;;;;5087823;28;47104;-71
2023/04/07 07:04:11;;;;;;;0.75;0.75;;;13.60;45.80;;;;;;5087951;28;45355;-71
2023/04/07 07:06:37;;;;;;;0.95;0.95;;;13.60;45.80;;;;;;5087960;28;45354;-71
2023/04/07 07:09:04;;;;;;;1.42;0.85;;;13.60;45.80;;;;;;5088235;28;45405;-71
2023/04/07 07:11:31;;;;;;;0.80;0.80;;;13.60;45.90;;;;;;5088084;28;45425;-70
2023/04/07 07:13:59;;;;;;;0.80;0.80;;;13.60;45.80;;;;;;5087808;28;45335;-71
2023/04/07 07:16:27;;;;;;;0.65;0.65;;;13.70;45.80;;;;;;5087682;28;45368;-71
2023/04/07 07:18:54;;;;;;;1.02;1.02;;;13.70;45.80;;;;;;5088216;28;45515;-71
2023/04/07 07:21:21;;;;;;;1.25;1.15;;;13.70;45.80;;;;;;5087481;28;45412;-71
2023/04/07 07:23:48;;;;;;;0.85;0.85;;;13.70;45.80;;;;;;5087712;28;45365;-70
2023/04/07 07:26:15;;;;;;;1.23;0.75;;;13.70;45.70;;;;;;5086771;28;45288;-71
2023/04/07 07:28:42;;;;;;;0.90;0.90;;;13.80;45.70;;;;;;5087081;28;45310;-70
2023/04/07 07:31:11;;;;;;;1.15;1.00;;;13.80;45.70;;;;;;5086724;28;46666;-70
2023/04/07 07:33:40;;;;;;;1.48;1.10;;;13.80;45.70;;;;;;5086672;28;45328;-71
2023/04/07 07:36:07;;;;;;;1.23;1.10;;;13.80;45.70;;;;;;5086909;28;45332;-73
2023/04/07 07:38:34;;;;;;;1.25;0.90;;;13.80;45.70;;;;;;5087022;28;45318;-71
2023/04/07 07:41:01;;;;;;;1.50;1.00;;;13.80;45.70;;;;;;5086609;28;45482;-70
2023/04/07 07:43:28;;;;;;;0.73;0.73;;;13.80;45.60;;;;;;5083833;28;45320;-70
2023/04/07 07:45:55;;;;;;;0.80;0.80;;;13.90;45.90;;;;;;5086697;28;45272;-70
2023/04/07 07:48:23;;;;;;;1.42;1.02;;;13.90;45.70;;;;;;5086825;28;45364;-71
2023/04/07 07:50:50;;;;;;;0.90;0.90;;;13.90;45.70;;;;;;5086463;28;46683;-71
2023/04/07 07:53:17;;;;;;;1.10;1.00;;;13.90;45.80;;;;;;5086430;28;45320;-70
2023/04/07 07:55:45;;;;;;;1.13;0.70;;;13.90;45.70;;;;;;5086456;28;45388;-71
2023/04/07 07:58:12;;;;;;;0.77;0.77;;;13.90;45.80;;;;;;5086454;27;45375;-71
2023/04/07 08:00:39;;;;;;;1.55;0.95;;;13.90;45.80;;;;;;5086334;28;45643;-71
2023/04/07 08:03:06;;;;;;;1.05;0.90;;;13.90;45.80;;;;;;5086213;28;45451;-71
2023/04/07 08:05:34;;;;;;;0.90;0.90;;;13.90;45.80;;;;;;5086405;28;45267;-71
2023/04/07 08:08:01;;;;;;;0.80;0.80;;;13.90;45.80;;;;;;5086530;28;45229;-71
2023/04/07 08:10:28;;;;;;;1.15;1.05;;;13.90;45.80;;;;;;5086139;28;47530;-71
2023/04/07 08:12:55;;;;;;;1.52;1.00;;;13.90;45.80;;;;;;5086268;28;45328;-71
2023/04/07 08:15:22;;;;;;;1.08;1.00;;;13.90;45.70;;;;;;5086147;28;45297;-71
2023/04/07 08:17:49;;;;;;;1.17;1.10;;;13.90;45.70;;;;;;5086646;28;45332;-71
2023/04/07 08:20:16;;;;;;;0.85;0.85;;;14.00;45.80;;;;;;5085980;28;46668;-71
2023/04/07 08:22:44;;;;;;;0.88;0.88;;;14.00;45.80;;;;;;5086136;28;45446;-71
2023/04/07 08:25:11;;;;;;;0.70;0.70;;;14.00;45.90;;;;;;5085951;28;45365;-71
2023/04/07 08:27:38;;;;;;;0.88;0.88;;;14.00;45.90;;;;;;5086139;28;45327;-71
2023/04/07 08:30:06;;;;;;;0.93;0.90;;;14.00;45.80;;;;;;5085680;28;45266;-71
2023/04/07 08:32:36;;;;;;;0.90;0.90;;;14.00;45.90;;;;;;5085757;28;45297;-71
2023/04/07 08:35:03;;;;;;;0.73;0.73;;;14.00;45.80;;;;;;5085852;28;44724;-71
2023/04/07 08:37:30;;;;;;;0.77;0.77;;;14.00;45.90;;;;;;5085927;28;45320;-71
2023/04/07 08:39:58;;;;;;;1.02;1.02;;;14.00;45.90;;;;;;5084273;27;45407;-71
2023/04/07 08:42:28;;;;;;;1.10;1.00;;;14.00;45.90;;;;;;5098159;27;45528;-71
2023/04/07 08:44:56;;;;;;;1.38;0.90;;;14.00;45.90;;;;;;5085774;28;45358;-70
2023/04/07 08:47:24;;;;;;;1.08;0.98;;;14.00;46.00;;;;;;5085926;28;45364;-71
2023/04/07 08:49:52;;;;;;;1.00;1.00;;;14.00;45.90;;;;;;5085517;28;46641;-71
2023/04/07 08:52:21;;;;;;;0.90;0.90;;;14.00;46.00;;;;;;5091590;27;45359;-71
2023/04/07 08:54:48;;;;;;;1.38;0.90;;;14.00;46.00;;;;;;5099473;27;45553;-71
2023/04/07 08:57:16;;;;;;;1.20;1.00;;;14.10;46.10;;;;;;5088516;27;45418;-71
2023/04/07 08:59:46;;;;;;;0.90;0.82;;;14.00;46.00;;;;;;5085376;28;46775;-71
2023/04/07 09:02:13;;;;;;;0.88;0.88;;;14.10;46.20;;;;;;5085496;28;45448;-71
2023/04/07 09:04:41;;;;;;;1.08;1.02;;;14.00;46.00;;;;;;5085630;28;45280;-71
2023/04/07 09:07:07;;;;;;;1.20;0.90;;;14.00;46.20;;;;;;5085639;28;45561;-71
2023/04/07 09:09:34;;;;;;;0.90;0.85;;;14.00;46.40;;;;;;5085312;28;46415;-71
2023/04/07 09:12:01;;;;;;;1.00;0.90;;;14.00;46.20;;;;;;5088404;28;45298;-71
2023/04/07 09:14:30;;;;;;;0.80;0.80;;;14.10;46.30;;;;;;5089124;28;45350;-70
2023/04/07 09:16:58;;;;;;;1.30;1.08;;;14.00;46.20;;;;;;5089120;28;45463;-71
2023/04/07 09:19:27;;;;;;;0.93;0.93;;;14.10;46.30;;;;;;5088814;28;45445;-71
2023/04/07 09:21:54;;;;;;;0.82;0.82;;;14.10;46.10;;;;;;5088777;28;45399;-71
2023/04/07 09:24:21;;;;;;;0.95;0.88;;;14.10;46.30;;;;;;5088893;28;45381;-71
2023/04/07 09:26:48;;;;;;;0.90;0.90;;;14.10;46.40;;;;;;5088734;28;45492;-71
2023/04/07 09:29:19;;;;;;;0.80;0.80;;;14.10;46.20;;;;;;5088686;28;45314;-71
2023/04/07 09:31:49;;;;;;;1.30;1.10;;;14.10;46.10;;;;;;5088577;28;45380;-71
2023/04/07 09:34:24;;;;;;;0.73;0.73;;;14.10;46.30;;;;;;5088816;28;45300;-71
2023/04/07 09:36:51;;;;;;;1.70;0.88;;;14.10;46.30;;;;;;5088922;28;45243;-71
2023/04/07 09:39:18;;;;;;;1.00;0.90;;;14.10;46.50;;;;;;5088535;28;46428;-71
2023/04/07 09:41:45;;;;;;;1.23;1.10;;;14.10;46.30;;;;;;5088548;28;45367;-70
2023/04/07 09:44:12;;;;;;;0.75;0.75;;;14.10;46.50;;;;;;5085553;28;45551;-71
2023/04/07 09:46:50;;;;;;;0.70;0.70;;;14.10;46.30;;;;;;5085458;28;45407;-71
2023/04/07 09:49:19;;;;;;;0.95;0.90;;;14.20;46.70;;;;;;5085946;28;48233;-72
2023/04/07 09:51:56;;;;;;;0.82;0.82;;;14.20;46.40;;;;;;5088659;28;45355;-71
2023/04/07 09:54:35;;;;;;;1.13;0.90;;;14.20;46.30;;;;;;5088880;28;45320;-71
2023/04/07 09:57:02;;;;;;;1.00;0.77;;;14.20;46.30;;;;;;5088840;28;45270;-72
2023/04/07 09:59:29;;;;;;;0.80;0.80;;;14.20;46.50;;;;;;5088220;28;46417;-72
2023/04/07 10:01:57;;;;;;;1.05;1.00;;;14.20;46.70;;;;;;5088252;28;45331;-72
2023/04/07 10:04:24;;;;;;;0.80;0.80;;;14.20;46.70;;;;;;5088322;28;45309;-72
2023/04/07 10:06:53;;;;;;;0.80;0.80;;;14.20;46.40;;;;;;5088413;28;45420;-71
2023/04/07 10:09:20;;;;;;;2.88;0.88;;;14.20;46.50;;;;;;5088010;28;46897;-72
2023/04/07 10:11:46;;;;;;;0.80;0.80;;;14.20;46.40;;;;;;5088213;28;45163;-72
2023/04/07 10:14:13;;;;;;;0.77;0.77;;;14.20;46.40;;;;;;5088065;28;45376;-72
2023/04/07 10:16:41;;;;;;;1.00;0.90;;;14.20;46.40;;;;;;5088221;28;45461;-72
2023/04/07 10:19:09;;;;;;;1.70;0.93;;;14.20;46.40;;;;;;5087866;28;46438;-72
2023/04/07 10:21:37;;;;;;;0.80;0.80;;;14.20;46.40;;;;;;5087770;28;45358;-72
2023/04/07 10:24:07;;;;;;;0.75;0.75;;;14.20;46.40;;;;;;5087904;28;45311;-72
2023/04/07 10:26:34;;;;;;;0.60;0.60;;;14.20;46.40;;;;;;5087755;28;45317;-72
2023/04/07 10:29:04;;;;;;;0.73;0.73;;;14.20;46.30;;;;;;5087732;28;46293;-72
2023/04/07 10:31:32;;;;;;;0.68;0.68;;;14.20;46.40;;;;;;5087678;28;45249;-71
2023/04/07 10:34:00;;;;;;;1.02;1.02;;;14.20;46.30;;;;;;5088217;28;45351;-72
2023/04/07 10:36:29;;;;;;;1.00;0.80;;;14.30;46.30;;;;;;5087892;28;45643;-72
2023/04/07 10:39:20;;;;;;;0.93;0.90;;;14.30;46.50;;;;;;5087614;28;46704;-72
2023/04/07 10:41:47;;;;;;;1.85;1.10;;;14.30;46.60;;;;;;5080121;28;45366;-71
2023/04/07 10:44:44;;;;;;;1.20;0.80;;;14.30;46.50;;;;;;5069489;28;45300;-72
2023/04/07 10:47:13;;;;;;;1.65;0.98;;;14.30;46.50;;;;;;5071122;28;45257;-72
2023/04/07 10:49:39;;;;;;;0.82;0.82;;;14.30;46.50;;;;;;5087285;28;46275;-72
2023/04/07 10:52:25;;;;;;;1.02;0.80;;;14.30;46.50;;;;;;5087646;28;45317;-72
2023/04/07 10:55:30;;;;;;;0.73;0.73;;;14.30;46.60;;;;;;5087461;28;45318;-72
2023/04/07 10:58:30;;;;;;;0.70;0.70;;;14.30;46.50;;;;;;5087613;28;45504;-72
2023/04/07 11:01:30;;;;;;;0.70;0.70;;;14.30;46.70;;;;;;5087295;28;45475;-72
2023/04/07 11:04:00;;;;;;;0.77;0.77;;;14.30;46.60;;;;;;5087115;28;45407;-72
2023/04/07 11:06:27;;;;;;;0.70;0.70;;;14.30;46.70;;;;;;5087315;28;45307;-71
2023/04/07 11:08:55;;;;;;;0.80;0.80;;;14.30;46.60;;;;;;5087555;28;45485;-71
2023/04/07 11:11:41;;;;;;;3.33;0.90;;;14.30;46.70;;;;;;5087092;28;45636;-71
2023/04/07 11:14:08;;;;;;;0.77;0.77;;;14.30;46.60;;;;;;5086955;28;45310;-72
2023/04/07 11:16:39;;;;;;;0.70;0.70;;;14.40;46.80;;;;;;5087272;28;45258;-72
2023/04/07 11:19:06;;;;;;;3.20;0.88;;;14.40;46.70;;;;;;5087266;28;45417;-72
2023/04/07 11:21:33;;;;;;;1.13;0.90;;;14.40;46.80;;;;;;5086933;28;46396;-73
2023/04/07 11:24:01;;;;;;;0.85;0.80;;;14.40;46.80;;;;;;5087012;28;45340;-73
2023/04/07 11:26:29;;;;;;;1.17;0.90;;;14.40;46.90;;;;;;5086712;28;45304;-72
2023/04/07 11:28:57;;;;;;;0.80;0.80;;;14.40;47.00;;;;;;5087309;28;45419;-72
2023/04/07 11:31:24;;;;;;;0.70;0.70;;;14.40;46.90;;;;;;5086706;28;46868;-73
2023/04/07 11:33:55;;;;;;;2.58;0.85;;;14.50;47.00;;;;;;5086195;27;45268;-73
2023/04/07 11:36:28;;;;;;;1.00;0.90;;;14.40;47.00;;;;;;5086988;28;45285;-71
2023/04/07 11:38:56;;;;;;;0.75;0.60;;;14.50;46.90;;;;;;5086908;28;45411;-73
2023/04/07 11:41:24;;;;;;;0.88;0.88;;;14.50;46.90;;;;;;5086681;28;45306;-73
2023/04/07 11:44:04;;;;;;;1.80;0.80;;;14.50;46.90;;;;;;5086460;28;45281;-73
2023/04/07 11:46:31;;;;;;;0.88;0.80;;;14.50;47.50;;;;;;5086719;28;45316;-73
2023/04/07 11:49:08;;;;;;;1.10;0.80;;;14.60;46.90;;;;;;5086676;28;45410;-73
2023/04/07 11:51:35;;;;;;;0.98;0.93;;;14.60;47.00;;;;;;5086475;28;46662;-72
2023/04/07 11:54:02;;;;;;;0.80;0.80;;;14.60;47.00;;;;;;5085112;28;45304;-72
2023/04/07 11:56:31;;;;;;;1.17;0.90;;;14.60;47.60;;;;;;5085567;27;45349;-72
2023/04/07 11:58:58;;;;;;;0.70;0.70;;;14.60;46.60;;;;;;5082782;27;45527;-72
2023/04/07 12:01:25;;;;;;;1.17;0.80;;;14.60;46.60;;;;;;5083070;28;45534;-71
2023/04/07 12:03:57;;;;;;;0.80;0.80;;;14.70;46.70;;;;;;5082487;27;45421;-72
2023/04/07 12:06:29;;;;;;;2.70;0.82;;;14.70;47.50;;;;;;5083422;27;45306;-71
2023/04/07 12:08:56;;;;;;;2.30;1.05;;;14.70;47.60;;;;;;5082314;27;45528;-71
2023/04/07 12:11:23;;;;;;;0.80;0.80;;;14.80;47.60;;;;;;5080006;27;45520;-72
2023/04/07 12:13:52;;;;;;;2.25;0.80;;;14.80;47.40;;;;;;5080929;28;45391;-72
2023/04/07 12:16:18;;;;;;;1.00;0.90;;;14.80;47.30;;;;;;5083718;28;45425;-72
2023/04/07 12:18:46;;;;;;;0.60;0.60;;;14.90;47.50;;;;;;5067917;27;46337;-71
2023/04/07 12:21:13;;;;;;;1.52;0.68;;;14.80;47.10;;;;;;5076901;28;45529;-72
2023/04/07 12:23:39;;;;;;;0.88;0.68;;;14.90;47.30;;;;;;5080299;27;45400;-71
2023/04/07 12:26:06;;;;;;;0.88;0.73;;;14.90;47.10;;;;;;5080974;28;45665;-71
2023/04/07 12:28:36;;;;;;;1.17;0.75;;;14.90;46.90;;;;;;5080632;28;45812;-71
2023/04/07 12:31:05;;;;;;;2.42;0.85;;;14.90;47.10;;;;;;5078177;28;45868;-71
2023/04/07 12:33:31;;;;;;;0.80;0.80;;;14.90;46.90;;;;;;5083340;28;45309;-71
2023/04/07 12:35:58;;;;;;;2.28;0.90;;;14.90;48.00;;;;;;5084772;28;45318;-72
2023/04/07 12:38:25;;;;;;;1.00;0.90;;;14.90;47.10;;;;;;5084680;28;45360;-71
2023/04/07 12:40:52;;;;;;;1.58;0.88;;;14.80;47.10;;;;;;5080494;28;45609;-71
2023/04/07 12:43:19;;;;;;;0.73;0.73;;;14.90;47.30;;;;;;5082991;28;45379;-71
2023/04/07 12:45:46;;;;;;;1.00;0.90;;;14.80;47.20;;;;;;5082631;28;45464;-71
2023/04/07 12:48:15;;;;;;;0.70;0.70;;;14.80;47.30;;;;;;5081851;28;45733;-71
2023/04/07 12:50:42;;;;;;;1.42;0.80;;;14.80;47.30;;;;;;5081912;28;45491;-70
2023/04/07 12:53:09;;;;;;;0.85;0.60;;;14.80;47.30;;;;;;5081398;28;45492;-70